sensor_id;sensor_type;location;lat;lon;timestamp;pressure;altitude;pressure_sealevel;temperature
66372;BMP180;53168;51.146;17.120;2024-02-04T00:01:59;100141.00;;;8.20
66372;BMP180;53168;51.146;17.120;2024-02-04T00:04:49;100126.00;;;8.20
66372;BMP180;53168;51.146;17.120;2024-02-04T00:07:30;100111.40;;;8.20
66372;BMP180;53168;51.146;17.120;2024-02-04T00:10:09;100112.60;;;8.12
66372;BMP180;53168;51.146;17.120;2024-02-04T00:12:55;100108.60;;;8.10
66372;BMP180;53168;51.146;17.120;2024-02-04T00:27:32;100120.80;;;8.04
66372;BMP180;53168;51.146;17.120;2024-02-04T00:30:24;100117.20;;;8.00
66372;BMP180;53168;51.146;17.120;2024-02-04T00:32:56;100121.80;;;8.00
66372;BMP180;53168;51.146;17.120;2024-02-04T00:35:35;100116.60;;;7.90
66372;BMP180;53168;51.146;17.120;2024-02-04T00:38:08;100125.60;;;7.90
66372;BMP180;53168;51.146;17.120;2024-02-04T00:40:43;100115.80;;;7.90
66372;BMP180;53168;51.146;17.120;2024-02-04T00:43:18;100123.00;;;7.90
66372;BMP180;53168;51.146;17.120;2024-02-04T00:45:50;100114.20;;;7.90
66372;BMP180;53168;51.146;17.120;2024-02-04T00:48:22;100111.00;;;7.90
66372;BMP180;53168;51.146;17.120;2024-02-04T00:53:59;100123.20;;;7.80
66372;BMP180;53168;51.146;17.120;2024-02-04T00:56:31;100116.00;;;7.80
66372;BMP180;53168;51.146;17.120;2024-02-04T00:59:02;100115.00;;;7.80
66372;BMP180;53168;51.146;17.120;2024-02-04T01:01:33;100107.60;;;7.70
66372;BMP180;53168;51.146;17.120;2024-02-04T01:04:06;100108.00;;;7.60
66372;BMP180;53168;51.146;17.120;2024-02-04T01:06:37;100120.60;;;7.50
66372;BMP180;53168;51.146;17.120;2024-02-04T01:09:30;100119.00;;;7.50
66372;BMP180;53168;51.146;17.120;2024-02-04T01:12:22;100118.20;;;7.50
66372;BMP180;53168;51.146;17.120;2024-02-04T01:14:56;100122.40;;;7.50
66372;BMP180;53168;51.146;17.120;2024-02-04T01:17:31;100129.80;;;7.50
66372;BMP180;53168;51.146;17.120;2024-02-04T01:20:11;100121.60;;;7.48
66372;BMP180;53168;51.146;17.120;2024-02-04T01:23:03;100117.80;;;7.40
66372;BMP180;53168;51.146;17.120;2024-02-04T01:25:35;100113.00;;;7.40
66372;BMP180;53168;51.146;17.120;2024-02-04T01:28:15;100115.40;;;7.40
66372;BMP180;53168;51.146;17.120;2024-02-04T01:30:54;100111.20;;;7.38
66372;BMP180;53168;51.146;17.120;2024-02-04T01:33:26;100101.60;;;7.40
66372;BMP180;53168;51.146;17.120;2024-02-04T01:36:02;100099.80;;;7.30
66372;BMP180;53168;51.146;17.120;2024-02-04T01:38:33;100104.40;;;7.30
66372;BMP180;53168;51.146;17.120;2024-02-04T01:41:04;100107.60;;;7.30
66372;BMP180;53168;51.146;17.120;2024-02-04T01:43:40;100105.00;;;7.20
66372;BMP180;53168;51.146;17.120;2024-02-04T01:46:12;100105.60;;;7.20
66372;BMP180;53168;51.146;17.120;2024-02-04T01:48:44;100101.20;;;7.20
66372;BMP180;53168;51.146;17.120;2024-02-04T01:51:21;100110.60;;;7.18
66372;BMP180;53168;51.146;17.120;2024-02-04T01:53:58;100110.20;;;7.12
66372;BMP180;53168;51.146;17.120;2024-02-04T01:56:31;100103.40;;;7.20
66372;BMP180;53168;51.146;17.120;2024-02-04T01:59:04;100081.60;;;7.30
66372;BMP180;53168;51.146;17.120;2024-02-04T02:01:38;100076.40;;;7.40
66372;BMP180;53168;51.146;17.120;2024-02-04T02:04:10;100081.60;;;7.40
66372;BMP180;53168;51.146;17.120;2024-02-04T02:06:45;100087.60;;;7.50
66372;BMP180;53168;51.146;17.120;2024-02-04T02:09:31;100087.20;;;7.50
66372;BMP180;53168;51.146;17.120;2024-02-04T02:12:13;100077.40;;;7.60
66372;BMP180;53168;51.146;17.120;2024-02-04T02:14:53;100091.60;;;7.70
66372;BMP180;53168;51.146;17.120;2024-02-04T02:17:35;100100.00;;;7.70
66372;BMP180;53168;51.146;17.120;2024-02-04T02:20:23;100109.80;;;7.72
66372;BMP180;53168;51.146;17.120;2024-02-04T02:23:10;100112.60;;;7.80
66372;BMP180;53168;51.146;17.120;2024-02-04T02:25:52;100112.00;;;7.80
66372;BMP180;53168;51.146;17.120;2024-02-04T02:28:26;100101.60;;;7.90
66372;BMP180;53168;51.146;17.120;2024-02-04T02:30:57;100095.00;;;7.90
66372;BMP180;53168;51.146;17.120;2024-02-04T02:33:29;100080.40;;;7.90
66372;BMP180;53168;51.146;17.120;2024-02-04T02:36:16;100076.40;;;7.90
66372;BMP180;53168;51.146;17.120;2024-02-04T02:39:09;100062.00;;;7.90
66372;BMP180;53168;51.146;17.120;2024-02-04T02:41:53;100061.20;;;7.90
66372;BMP180;53168;51.146;17.120;2024-02-04T02:44:28;100066.80;;;7.90
66372;BMP180;53168;51.146;17.120;2024-02-04T02:47:02;100082.00;;;7.90
66372;BMP180;53168;51.146;17.120;2024-02-04T02:49:38;100070.20;;;7.90
66372;BMP180;53168;51.146;17.120;2024-02-04T02:52:09;100081.00;;;7.90
66372;BMP180;53168;51.146;17.120;2024-02-04T02:54:45;100084.40;;;7.90
66372;BMP180;53168;51.146;17.120;2024-02-04T02:57:17;100086.60;;;7.90
66372;BMP180;53168;51.146;17.120;2024-02-04T03:00:19;100081.00;;;7.86
66372;BMP180;53168;51.146;17.120;2024-02-04T03:02:55;100072.00;;;7.82
66372;BMP180;53168;51.146;17.120;2024-02-04T03:05:30;100063.40;;;7.74
66372;BMP180;53168;51.146;17.120;2024-02-04T03:08:06;100055.80;;;7.60
66372;BMP180;53168;51.146;17.120;2024-02-04T03:10:41;100063.80;;;7.50
66372;BMP180;53168;51.146;17.120;2024-02-04T03:13:16;100061.20;;;7.40
66372;BMP180;53168;51.146;17.120;2024-02-04T03:15:53;100071.20;;;7.40
66372;BMP180;53168;51.146;17.120;2024-02-04T03:18:29;100056.40;;;7.30
66372;BMP180;53168;51.146;17.120;2024-02-04T03:21:10;100065.20;;;7.20
66372;BMP180;53168;51.146;17.120;2024-02-04T03:23:46;100069.80;;;7.10
66372;BMP180;53168;51.146;17.120;2024-02-04T03:26:21;100061.40;;;7.04
66372;BMP180;53168;51.146;17.120;2024-02-04T03:28:56;100076.60;;;7.10
66372;BMP180;53168;51.146;17.120;2024-02-04T03:31:32;100076.60;;;7.12
66372;BMP180;53168;51.146;17.120;2024-02-04T03:34:07;100065.20;;;7.12
66372;BMP180;53168;51.146;17.120;2024-02-04T03:36:42;100077.40;;;7.10
66372;BMP180;53168;51.146;17.120;2024-02-04T03:39:17;100079.00;;;7.00
66372;BMP180;53168;51.146;17.120;2024-02-04T03:41:51;100081.80;;;6.96
66372;BMP180;53168;51.146;17.120;2024-02-04T03:44:28;100093.00;;;6.90
66372;BMP180;53168;51.146;17.120;2024-02-04T03:47:03;100099.00;;;6.90
66372;BMP180;53168;51.146;17.120;2024-02-04T03:49:38;100084.60;;;6.80
66372;BMP180;53168;51.146;17.120;2024-02-04T03:52:12;100099.60;;;6.78
66372;BMP180;53168;51.146;17.120;2024-02-04T03:54:47;100093.60;;;6.78
66372;BMP180;53168;51.146;17.120;2024-02-04T04:09:21;100116.40;;;6.78
66372;BMP180;53168;51.146;17.120;2024-02-04T04:12:00;100127.80;;;6.76
66372;BMP180;53168;51.146;17.120;2024-02-04T04:14:39;100123.60;;;6.70
66372;BMP180;53168;51.146;17.120;2024-02-04T04:17:17;100122.80;;;6.70
66372;BMP180;53168;51.146;17.120;2024-02-04T04:19:51;100125.40;;;6.60
66372;BMP180;53168;51.146;17.120;2024-02-04T04:22:26;100133.00;;;6.60
66372;BMP180;53168;51.146;17.120;2024-02-04T04:25:02;100136.00;;;6.62
66372;BMP180;53168;51.146;17.120;2024-02-04T04:27:38;100133.80;;;6.62
66372;BMP180;53168;51.146;17.120;2024-02-04T04:30:14;100129.40;;;6.60
66372;BMP180;53168;51.146;17.120;2024-02-04T04:32:51;100126.00;;;6.68
66372;BMP180;53168;51.146;17.120;2024-02-04T04:35:27;100136.60;;;6.70
66372;BMP180;53168;51.146;17.120;2024-02-04T04:38:03;100131.00;;;6.80
66372;BMP180;53168;51.146;17.120;2024-02-04T04:40:39;100127.80;;;6.80
66372;BMP180;53168;51.146;17.120;2024-02-04T04:43:14;100132.80;;;6.80
66372;BMP180;53168;51.146;17.120;2024-02-04T04:45:49;100134.20;;;6.70
66372;BMP180;53168;51.146;17.120;2024-02-04T04:48:27;100139.40;;;6.70
66372;BMP180;53168;51.146;17.120;2024-02-04T04:51:02;100138.80;;;6.70
66372;BMP180;53168;51.146;17.120;2024-02-04T04:53:37;100137.60;;;6.68
66372;BMP180;53168;51.146;17.120;2024-02-04T04:56:12;100133.40;;;6.60
66372;BMP180;53168;51.146;17.120;2024-02-04T04:58:47;100127.00;;;6.52
66372;BMP180;53168;51.146;17.120;2024-02-04T05:01:23;100123.00;;;6.40
66372;BMP180;53168;51.146;17.120;2024-02-04T05:04:01;100136.80;;;6.40
66372;BMP180;53168;51.146;17.120;2024-02-04T05:06:37;100128.40;;;6.40
66372;BMP180;53168;51.146;17.120;2024-02-04T05:09:11;100120.80;;;6.40
66372;BMP180;53168;51.146;17.120;2024-02-04T05:11:46;100117.80;;;6.40
66372;BMP180;53168;51.146;17.120;2024-02-04T05:14:21;100123.60;;;6.30
66372;BMP180;53168;51.146;17.120;2024-02-04T05:17:01;100117.80;;;6.30
66372;BMP180;53168;51.146;17.120;2024-02-04T05:19:37;100120.00;;;6.20
66372;BMP180;53168;51.146;17.120;2024-02-04T05:22:11;100118.80;;;6.20
66372;BMP180;53168;51.146;17.120;2024-02-04T05:24:46;100122.20;;;6.18
66372;BMP180;53168;51.146;17.120;2024-02-04T05:27:21;100113.60;;;6.20
66372;BMP180;53168;51.146;17.120;2024-02-04T05:29:56;100117.00;;;6.14
66372;BMP180;53168;51.146;17.120;2024-02-04T05:32:34;100111.20;;;6.10
66372;BMP180;53168;51.146;17.120;2024-02-04T05:35:10;100122.40;;;6.12
66372;BMP180;53168;51.146;17.120;2024-02-04T05:37:44;100124.40;;;6.14
66372;BMP180;53168;51.146;17.120;2024-02-04T05:40:19;100132.40;;;6.20
66372;BMP180;53168;51.146;17.120;2024-02-04T05:42:55;100137.00;;;6.20
66372;BMP180;53168;51.146;17.120;2024-02-04T05:45:30;100137.00;;;6.22
66372;BMP180;53168;51.146;17.120;2024-02-04T05:48:06;100143.80;;;6.20
66372;BMP180;53168;51.146;17.120;2024-02-04T05:50:41;100145.00;;;6.20
66372;BMP180;53168;51.146;17.120;2024-02-04T05:53:16;100142.40;;;6.20
66372;BMP180;53168;51.146;17.120;2024-02-04T05:55:51;100143.40;;;6.20
66372;BMP180;53168;51.146;17.120;2024-02-04T05:58:26;100142.40;;;6.10
66372;BMP180;53168;51.146;17.120;2024-02-04T06:01:01;100141.00;;;6.08
66372;BMP180;53168;51.146;17.120;2024-02-04T06:03:36;100141.00;;;6.00
66372;BMP180;53168;51.146;17.120;2024-02-04T06:06:15;100144.40;;;5.90
66372;BMP180;53168;51.146;17.120;2024-02-04T06:08:53;100150.20;;;5.90
66372;BMP180;53168;51.146;17.120;2024-02-04T06:11:28;100149.40;;;5.86
66372;BMP180;53168;51.146;17.120;2024-02-04T06:14:04;100146.00;;;5.90
66372;BMP180;53168;51.146;17.120;2024-02-04T06:16:42;100150.20;;;5.90
66372;BMP180;53168;51.146;17.120;2024-02-04T06:19:17;100144.40;;;5.90
66372;BMP180;53168;51.146;17.120;2024-02-04T06:21:52;100143.20;;;5.86
66372;BMP180;53168;51.146;17.120;2024-02-04T06:24:28;100140.00;;;5.90
66372;BMP180;53168;51.146;17.120;2024-02-04T06:27:04;100135.20;;;5.90
66372;BMP180;53168;51.146;17.120;2024-02-04T06:29:39;100132.20;;;5.90
66372;BMP180;53168;51.146;17.120;2024-02-04T06:32:14;100147.20;;;5.90
66372;BMP180;53168;51.146;17.120;2024-02-04T06:34:49;100142.80;;;5.88
66372;BMP180;53168;51.146;17.120;2024-02-04T06:38:48;100132.00;;;5.80
66372;BMP180;53168;51.146;17.120;2024-02-04T06:41:23;100136.20;;;5.80
66372;BMP180;53168;51.146;17.120;2024-02-04T06:43:58;100142.80;;;5.80
66372;BMP180;53168;51.146;17.120;2024-02-04T06:46:35;100142.20;;;5.90
66372;BMP180;53168;51.146;17.120;2024-02-04T06:49:11;100150.40;;;6.00
66372;BMP180;53168;51.146;17.120;2024-02-04T06:51:51;100140.80;;;6.00
66372;BMP180;53168;51.146;17.120;2024-02-04T06:54:34;100146.40;;;5.90
66372;BMP180;53168;51.146;17.120;2024-02-04T06:57:09;100140.40;;;5.90
66372;BMP180;53168;51.146;17.120;2024-02-04T06:59:44;100138.80;;;6.00
66372;BMP180;53168;51.146;17.120;2024-02-04T07:02:18;100135.40;;;5.98
66372;BMP180;53168;51.146;17.120;2024-02-04T07:04:54;100140.20;;;5.92
66372;BMP180;53168;51.146;17.120;2024-02-04T07:07:29;100134.40;;;5.90
66372;BMP180;53168;51.146;17.120;2024-02-04T07:10:08;100135.80;;;5.90
66372;BMP180;53168;51.146;17.120;2024-02-04T07:12:44;100129.20;;;5.86
66372;BMP180;53168;51.146;17.120;2024-02-04T07:15:19;100126.00;;;5.90
66372;BMP180;53168;51.146;17.120;2024-02-04T07:17:54;100130.40;;;5.90
66372;BMP180;53168;51.146;17.120;2024-02-04T07:20:30;100118.00;;;5.90
66372;BMP180;53168;51.146;17.120;2024-02-04T07:23:05;100113.80;;;5.90
66372;BMP180;53168;51.146;17.120;2024-02-04T07:25:41;100108.20;;;5.90
66372;BMP180;53168;51.146;17.120;2024-02-04T07:28:16;100109.40;;;5.90
66372;BMP180;53168;51.146;17.120;2024-02-04T07:30:50;100109.20;;;5.96
66372;BMP180;53168;51.146;17.120;2024-02-04T07:33:25;100112.20;;;6.00
66372;BMP180;53168;51.146;17.120;2024-02-04T07:36:06;100105.60;;;6.10
66372;BMP180;53168;51.146;17.120;2024-02-04T07:38:41;100107.80;;;6.20
66372;BMP180;53168;51.146;17.120;2024-02-04T07:41:19;100112.40;;;6.30
66372;BMP180;53168;51.146;17.120;2024-02-04T07:43:55;100102.80;;;6.40
66372;BMP180;53168;51.146;17.120;2024-02-04T07:46:30;100103.80;;;6.48
66372;BMP180;53168;51.146;17.120;2024-02-04T07:49:07;100099.80;;;6.50
66372;BMP180;53168;51.146;17.120;2024-02-04T07:51:42;100111.60;;;6.50
66372;BMP180;53168;51.146;17.120;2024-02-04T07:54:16;100111.00;;;6.60
66372;BMP180;53168;51.146;17.120;2024-02-04T07:56:51;100102.80;;;6.70
66372;BMP180;53168;51.146;17.120;2024-02-04T07:59:26;100089.20;;;6.78
66372;BMP180;53168;51.146;17.120;2024-02-04T08:02:05;100100.40;;;6.80
66372;BMP180;53168;51.146;17.120;2024-02-04T08:04:43;100101.60;;;6.80
66372;BMP180;53168;51.146;17.120;2024-02-04T08:07:18;100105.80;;;6.90
66372;BMP180;53168;51.146;17.120;2024-02-04T08:09:54;100111.60;;;7.06
66372;BMP180;53168;51.146;17.120;2024-02-04T08:12:29;100106.80;;;7.12
66372;BMP180;53168;51.146;17.120;2024-02-04T08:15:06;100112.20;;;7.24
66372;BMP180;53168;51.146;17.120;2024-02-04T08:17:41;100097.80;;;7.30
66372;BMP180;53168;51.146;17.120;2024-02-04T08:20:17;100099.80;;;7.40
66372;BMP180;53168;51.146;17.120;2024-02-04T08:22:53;100107.60;;;7.50
66372;BMP180;53168;51.146;17.120;2024-02-04T08:25:29;100094.80;;;7.66
66372;BMP180;53168;51.146;17.120;2024-02-04T08:28:04;100082.00;;;7.72
66372;BMP180;53168;51.146;17.120;2024-02-04T08:30:40;100083.00;;;7.82
66372;BMP180;53168;51.146;17.120;2024-02-04T08:33:14;100099.00;;;7.96
66372;BMP180;53168;51.146;17.120;2024-02-04T08:35:51;100094.20;;;8.10
66372;BMP180;53168;51.146;17.120;2024-02-04T08:38:25;100101.60;;;8.20
66372;BMP180;53168;51.146;17.120;2024-02-04T08:41:01;100083.60;;;8.30
66372;BMP180;53168;51.146;17.120;2024-02-04T08:43:38;100085.00;;;8.52
66372;BMP180;53168;51.146;17.120;2024-02-04T08:46:13;100087.00;;;8.80
66372;BMP180;53168;51.146;17.120;2024-02-04T08:48:48;100083.20;;;8.98
66372;BMP180;53168;51.146;17.120;2024-02-04T08:51:23;100086.60;;;9.10
66372;BMP180;53168;51.146;17.120;2024-02-04T08:54:04;100087.00;;;9.20
66372;BMP180;53168;51.146;17.120;2024-02-04T08:56:41;100082.00;;;9.20
66372;BMP180;53168;51.146;17.120;2024-02-04T08:59:16;100084.80;;;9.20
66372;BMP180;53168;51.146;17.120;2024-02-04T09:01:51;100094.20;;;9.18
66372;BMP180;53168;51.146;17.120;2024-02-04T09:04:27;100083.40;;;9.20
66372;BMP180;53168;51.146;17.120;2024-02-04T09:07:04;100071.20;;;9.20
66372;BMP180;53168;51.146;17.120;2024-02-04T09:09:44;100060.20;;;9.20
66372;BMP180;53168;51.146;17.120;2024-02-04T09:12:28;100066.00;;;9.10
66372;BMP180;53168;51.146;17.120;2024-02-04T09:15:14;100061.80;;;9.10
66372;BMP180;53168;51.146;17.120;2024-02-04T09:17:51;100053.20;;;9.10
66372;BMP180;53168;51.146;17.120;2024-02-04T09:20:27;100054.40;;;9.10
66372;BMP180;53168;51.146;17.120;2024-02-04T09:23:03;100054.00;;;9.10
66372;BMP180;53168;51.146;17.120;2024-02-04T09:25:42;100050.80;;;9.18
66372;BMP180;53168;51.146;17.120;2024-02-04T09:28:18;100060.20;;;9.30
66372;BMP180;53168;51.146;17.120;2024-02-04T09:30:55;100051.80;;;9.34
66372;BMP180;53168;51.146;17.120;2024-02-04T09:33:31;100051.20;;;9.40
66372;BMP180;53168;51.146;17.120;2024-02-04T09:36:10;100044.60;;;9.50
66372;BMP180;53168;51.146;17.120;2024-02-04T09:38:45;100042.20;;;9.70
66372;BMP180;53168;51.146;17.120;2024-02-04T09:41:21;100033.20;;;9.70
66372;BMP180;53168;51.146;17.120;2024-02-04T09:44:03;100043.40;;;9.80
66372;BMP180;53168;51.146;17.120;2024-02-04T09:46:43;100039.80;;;9.80
66372;BMP180;53168;51.146;17.120;2024-02-04T09:49:18;100041.80;;;9.80
66372;BMP180;53168;51.146;17.120;2024-02-04T09:51:53;100053.80;;;9.76
66372;BMP180;53168;51.146;17.120;2024-02-04T09:54:32;100055.40;;;9.64
66372;BMP180;53168;51.146;17.120;2024-02-04T09:57:14;100053.40;;;9.60
66372;BMP180;53168;51.146;17.120;2024-02-04T09:59:53;100037.80;;;9.50
66372;BMP180;53168;51.146;17.120;2024-02-04T10:02:29;100030.60;;;9.50
66372;BMP180;53168;51.146;17.120;2024-02-04T10:05:22;100022.40;;;9.58
66372;BMP180;53168;51.146;17.120;2024-02-04T10:08:13;100011.20;;;9.60
66372;BMP180;53168;51.146;17.120;2024-02-04T10:10:55;100007.40;;;9.60
66372;BMP180;53168;51.146;17.120;2024-02-04T10:13:47;100009.00;;;9.70
66372;BMP180;53168;51.146;17.120;2024-02-04T10:16:40;100012.00;;;9.70
66372;BMP180;53168;51.146;17.120;2024-02-04T10:19:16;100009.00;;;9.70
66372;BMP180;53168;51.146;17.120;2024-02-04T10:22:01;100010.20;;;9.80
66372;BMP180;53168;51.146;17.120;2024-02-04T10:24:38;99998.20;;;9.80
66372;BMP180;53168;51.146;17.120;2024-02-04T10:27:16;100008.20;;;9.80
66372;BMP180;53168;51.146;17.120;2024-02-04T10:30:18;100012.00;;;9.78
66372;BMP180;53168;51.146;17.120;2024-02-04T10:39:53;99982.20;;;9.70
66372;BMP180;53168;51.146;17.120;2024-02-04T10:42:30;99983.60;;;9.72
66372;BMP180;53168;51.146;17.120;2024-02-04T10:45:24;99977.80;;;9.80
66372;BMP180;53168;51.146;17.120;2024-02-04T10:48:09;99976.60;;;9.80
66372;BMP180;53168;51.146;17.120;2024-02-04T10:50:58;99970.60;;;9.82
66372;BMP180;53168;51.146;17.120;2024-02-04T10:53:47;99966.20;;;9.90
66372;BMP180;53168;51.146;17.120;2024-02-04T10:56:51;99963.40;;;10.10
66372;BMP180;53168;51.146;17.120;2024-02-04T10:59:35;99960.40;;;10.26
66372;BMP180;53168;51.146;17.120;2024-02-04T11:02:16;99949.80;;;10.40
66372;BMP180;53168;51.146;17.120;2024-02-04T11:05:17;99950.40;;;10.40
66372;BMP180;53168;51.146;17.120;2024-02-04T11:07:53;99950.40;;;10.40
66372;BMP180;53168;51.146;17.120;2024-02-04T11:10:36;99948.00;;;10.40
66372;BMP180;53168;51.146;17.120;2024-02-04T11:13:24;99938.40;;;10.40
66372;BMP180;53168;51.146;17.120;2024-02-04T11:16:16;99955.60;;;10.30
66372;BMP180;53168;51.146;17.120;2024-02-04T11:19:21;99942.60;;;10.20
66372;BMP180;53168;51.146;17.120;2024-02-04T11:22:32;99927.00;;;10.14
66372;BMP180;53168;51.146;17.120;2024-02-04T11:25:44;99904.20;;;10.28
66372;BMP180;53168;51.146;17.120;2024-02-04T11:28:24;99894.00;;;10.30
66372;BMP180;53168;51.146;17.120;2024-02-04T11:31:00;99884.40;;;10.40
66372;BMP180;53168;51.146;17.120;2024-02-04T11:33:43;99894.80;;;10.40
66372;BMP180;53168;51.146;17.120;2024-02-04T11:36:18;99890.60;;;10.56
66372;BMP180;53168;51.146;17.120;2024-02-04T11:39:01;99898.60;;;10.60
66372;BMP180;53168;51.146;17.120;2024-02-04T11:53:30;99903.80;;;10.42
66372;BMP180;53168;51.146;17.120;2024-02-04T11:56:38;99884.80;;;10.50
66372;BMP180;53168;51.146;17.120;2024-02-04T11:59:20;99874.80;;;10.60
66372;BMP180;53168;51.146;17.120;2024-02-04T12:02:04;99868.60;;;10.68
66372;BMP180;53168;51.146;17.120;2024-02-04T12:04:48;99858.40;;;10.66
66372;BMP180;53168;51.146;17.120;2024-02-04T12:07:55;99856.00;;;10.60
66372;BMP180;53168;51.146;17.120;2024-02-04T12:11:40;99859.40;;;10.68
66372;BMP180;53168;51.146;17.120;2024-02-04T12:14:47;99849.80;;;10.70
66372;BMP180;53168;51.146;17.120;2024-02-04T12:17:25;99853.20;;;10.70
66372;BMP180;53168;51.146;17.120;2024-02-04T12:20:01;99830.00;;;10.80
66372;BMP180;53168;51.146;17.120;2024-02-04T12:22:39;99816.80;;;10.90
66372;BMP180;53168;51.146;17.120;2024-02-04T12:25:20;99798.00;;;10.92
66372;BMP180;53168;51.146;17.120;2024-02-04T12:28:23;99797.00;;;11.00
66372;BMP180;53168;51.146;17.120;2024-02-04T12:30:59;99817.60;;;11.00
66372;BMP180;53168;51.146;17.120;2024-02-04T12:33:56;99809.00;;;11.00
66372;BMP180;53168;51.146;17.120;2024-02-04T12:36:39;99802.00;;;11.00
66372;BMP180;53168;51.146;17.120;2024-02-04T12:39:24;99787.20;;;10.90
66372;BMP180;53168;51.146;17.120;2024-02-04T12:42:00;99770.20;;;10.90
66372;BMP180;53168;51.146;17.120;2024-02-04T12:44:35;99775.40;;;10.90
66372;BMP180;53168;51.146;17.120;2024-02-04T12:47:11;99775.80;;;10.80
66372;BMP180;53168;51.146;17.120;2024-02-04T12:49:52;99772.00;;;10.80
66372;BMP180;53168;51.146;17.120;2024-02-04T12:52:35;99762.80;;;10.80
66372;BMP180;53168;51.146;17.120;2024-02-04T12:55:27;99748.40;;;10.80
66372;BMP180;53168;51.146;17.120;2024-02-04T12:58:11;99738.00;;;10.90
66372;BMP180;53168;51.146;17.120;2024-02-04T13:01:05;99754.00;;;10.90
66372;BMP180;53168;51.146;17.120;2024-02-04T13:03:55;99742.80;;;10.92
66372;BMP180;53168;51.146;17.120;2024-02-04T13:06:39;99738.80;;;11.00
66372;BMP180;53168;51.146;17.120;2024-02-04T13:09:18;99740.40;;;11.00
66372;BMP180;53168;51.146;17.120;2024-02-04T13:12:02;99743.00;;;11.00
66372;BMP180;53168;51.146;17.120;2024-02-04T13:14:37;99730.40;;;11.00
66372;BMP180;53168;51.146;17.120;2024-02-04T13:17:13;99734.20;;;11.02
66372;BMP180;53168;51.146;17.120;2024-02-04T13:19:52;99731.80;;;11.00
66372;BMP180;53168;51.146;17.120;2024-02-04T13:22:28;99736.20;;;11.00
66372;BMP180;53168;51.146;17.120;2024-02-04T13:25:04;99728.80;;;11.00
66372;BMP180;53168;51.146;17.120;2024-02-04T13:40:47;99733.00;;;11.00
66372;BMP180;53168;51.146;17.120;2024-02-04T13:46:17;99731.20;;;11.00
66372;BMP180;53168;51.146;17.120;2024-02-04T13:48:48;99722.00;;;10.98
66372;BMP180;53168;51.146;17.120;2024-02-04T13:51:20;99716.00;;;10.90
66372;BMP180;53168;51.146;17.120;2024-02-04T13:54:12;99716.40;;;10.80
66372;BMP180;53168;51.146;17.120;2024-02-04T13:56:49;99713.20;;;10.80
66372;BMP180;53168;51.146;17.120;2024-02-04T14:15:15;99737.60;;;9.52
66372;BMP180;53168;51.146;17.120;2024-02-04T14:18:02;99747.20;;;9.14
66372;BMP180;53168;51.146;17.120;2024-02-04T14:20:53;99740.80;;;8.98
66372;BMP180;53168;51.146;17.120;2024-02-04T14:23:33;99751.40;;;8.84
66372;BMP180;53168;51.146;17.120;2024-02-04T14:26:20;99753.40;;;8.70
66372;BMP180;53168;51.146;17.120;2024-02-04T14:29:06;99744.60;;;8.60
66372;BMP180;53168;51.146;17.120;2024-02-04T14:31:44;99736.80;;;8.60
66372;BMP180;53168;51.146;17.120;2024-02-04T14:34:17;99725.80;;;8.60
66372;BMP180;53168;51.146;17.120;2024-02-04T14:36:50;99723.00;;;8.52
66372;BMP180;53168;51.146;17.120;2024-02-04T14:39:21;99717.00;;;8.60
66372;BMP180;53168;51.146;17.120;2024-02-04T14:41:59;99721.20;;;8.60
66372;BMP180;53168;51.146;17.120;2024-02-04T14:44:35;99711.60;;;8.60
66372;BMP180;53168;51.146;17.120;2024-02-04T14:47:10;99711.80;;;8.60
66372;BMP180;53168;51.146;17.120;2024-02-04T14:50:01;99712.40;;;8.60
66372;BMP180;53168;51.146;17.120;2024-02-04T14:52:36;99733.80;;;8.68
66372;BMP180;53168;51.146;17.120;2024-02-04T14:55:12;99703.40;;;8.70
66372;BMP180;53168;51.146;17.120;2024-02-04T14:57:49;99726.80;;;8.70
66372;BMP180;53168;51.146;17.120;2024-02-04T15:00:26;99714.60;;;8.70
66372;BMP180;53168;51.146;17.120;2024-02-04T15:03:01;99720.60;;;8.70
66372;BMP180;53168;51.146;17.120;2024-02-04T15:05:43;99714.20;;;8.70
66372;BMP180;53168;51.146;17.120;2024-02-04T15:08:23;99716.20;;;8.74
66372;BMP180;53168;51.146;17.120;2024-02-04T15:10:56;99721.80;;;8.70
66372;BMP180;53168;51.146;17.120;2024-02-04T15:13:30;99720.20;;;8.70
66372;BMP180;53168;51.146;17.120;2024-02-04T15:16:14;99722.40;;;8.70
66372;BMP180;53168;51.146;17.120;2024-02-04T15:18:47;99726.80;;;8.70
66372;BMP180;53168;51.146;17.120;2024-02-04T15:21:23;99710.20;;;8.70
66372;BMP180;53168;51.146;17.120;2024-02-04T15:23:59;99726.60;;;8.70
66372;BMP180;53168;51.146;17.120;2024-02-04T15:26:37;99713.40;;;8.60
66372;BMP180;53168;51.146;17.120;2024-02-04T15:29:11;99709.40;;;8.70
66372;BMP180;53168;51.146;17.120;2024-02-04T15:31:46;99716.40;;;8.60
66372;BMP180;53168;51.146;17.120;2024-02-04T15:34:20;99715.60;;;8.60
66372;BMP180;53168;51.146;17.120;2024-02-04T15:36:55;99710.20;;;8.60
66372;BMP180;53168;51.146;17.120;2024-02-04T15:39:27;99706.20;;;8.52
66372;BMP180;53168;51.146;17.120;2024-02-04T15:41:58;99717.80;;;8.60
66372;BMP180;53168;51.146;17.120;2024-02-04T15:44:50;99711.40;;;8.60
66372;BMP180;53168;51.146;17.120;2024-02-04T15:47:50;99713.40;;;8.60
66372;BMP180;53168;51.146;17.120;2024-02-04T15:50:27;99713.20;;;8.70
66372;BMP180;53168;51.146;17.120;2024-02-04T15:53:00;99723.00;;;8.70
66372;BMP180;53168;51.146;17.120;2024-02-04T15:55:34;99730.80;;;8.80
66372;BMP180;53168;51.146;17.120;2024-02-04T15:58:10;99725.20;;;8.90
66372;BMP180;53168;51.146;17.120;2024-02-04T16:00:46;99719.80;;;8.90
66372;BMP180;53168;51.146;17.120;2024-02-04T16:03:38;99718.40;;;8.90
66372;BMP180;53168;51.146;17.120;2024-02-04T16:06:24;99717.80;;;8.90
66372;BMP180;53168;51.146;17.120;2024-02-04T16:09:02;99727.20;;;9.00
66372;BMP180;53168;51.146;17.120;2024-02-04T16:11:51;99722.20;;;9.00
66372;BMP180;53168;51.146;17.120;2024-02-04T16:14:27;99728.80;;;9.10
66372;BMP180;53168;51.146;17.120;2024-02-04T16:17:05;99730.20;;;9.10
66372;BMP180;53168;51.146;17.120;2024-02-04T16:19:38;99735.60;;;9.10
66372;BMP180;53168;51.146;17.120;2024-02-04T16:22:09;99737.40;;;9.10
66372;BMP180;53168;51.146;17.120;2024-02-04T16:24:42;99733.80;;;9.00